Time;durP1;ratioP1;P1;durP2;ratioP2;P2;SDS_P1;SDS_P2;PMS_P1;PMS_P2;Temp;Humidity;BMP_temperature;BMP_pressure;BME280_temperature;BME280_humidity;BME280_pressure;Samples;Min_cycle;Max_cycle;Signal;HPM_P1;HPM_P2
2022/12/17 13:07:46;;;;;;;;;;;;;;;21.80;39.37;95125.69;6128020;19;1064;-81
2022/12/17 13:09:51;;;;;;;;;;;;;;;21.77;39.50;95124.28;6119452;19;1424;-81
2022/12/17 13:11:58;;;;;;;;;;;;;;;21.73;39.49;95108.88;6121982;19;1044;-81
2022/12/17 13:14:03;;;;;;;;;;;;;;;21.72;39.23;95104.56;6128066;19;1049;-81
2022/12/17 13:16:19;;;;;;;;;;;;;;;21.82;38.96;95107.56;6128111;19;1048;-80
2022/12/17 13:18:30;;;;;;;;;;;;;;;21.77;39.35;95107.38;6128545;19;1025;-82
2022/12/17 13:20:34;;;;;;;;;;;;;;;21.79;39.02;95108.00;6126586;19;1576;-81
2022/12/17 13:22:38;;;;;;;;;;;;;;;21.80;39.31;95118.50;6113966;19;1819;-81
2022/12/17 13:24:41;;;;;;;;;;;;;;;21.81;39.28;95119.31;6127709;19;1108;-80
2022/12/17 13:26:45;;;;;;;;;;;;;;;21.85;38.83;95123.16;6128372;19;1064;-80
2022/12/17 13:29:03;;;;;;;;;;;;;;;21.86;38.99;95116.81;6127957;19;1176;-80
2022/12/17 13:31:07;;;;;;;;;;;;;;;21.86;39.21;95130.19;6125453;19;1396;-81
2022/12/17 13:33:24;;;;;;;;;;;;;;;21.82;39.19;95142.34;6114155;19;1028;-80
2022/12/17 13:35:36;;;;;;;;;;;;;;;21.83;39.09;95147.47;6128805;19;1099;-80
2022/12/17 13:37:44;;;;;;;;;;;;;;;21.81;39.26;95135.34;6125131;19;1547;-80
2022/12/17 13:39:52;;;;;;;;;;;;;;;21.79;38.83;95130.22;6126152;19;1453;-81
2022/12/17 13:41:58;;;;;;;;;;;;;;;21.75;39.42;95134.34;6125955;19;1833;-81
2022/12/17 13:44:03;;;;;;;;;;;;;;;21.77;38.85;95134.13;6118008;19;1024;-83
2022/12/17 13:46:07;;;;;;;;;;;;;;;21.74;39.19;95138.09;6125191;19;1194;-80
2022/12/17 13:48:20;;;;;;;;;;;;;;;21.77;38.86;95137.66;6125953;19;1447;-81
2022/12/17 13:50:24;;;;;;;;;;;;;;;21.71;39.04;95140.34;6126443;19;1428;-81
2022/12/17 13:52:33;;;;;;;;;;;;;;;21.70;39.26;95133.38;6126800;19;1055;-81
2022/12/17 13:54:36;;;;;;;;;;;;;;;21.73;39.17;95143.63;6127688;19;1016;-81
2022/12/17 13:56:39;;;;;;;;;;;;;;;21.70;39.47;95152.09;6111888;19;1417;-81
2022/12/17 13:58:44;;;;;;;;;;;;;;;21.71;39.50;95153.72;6125393;19;1440;-81
2022/12/17 14:00:49;;;;;;;;;;;;;;;21.66;39.56;95162.41;6126299;19;1151;-81
2022/12/17 14:02:53;;;;;;;;;;;;;;;21.63;39.61;95169.00;6127183;19;1860;-80
2022/12/17 14:04:57;;;;;;;;;;;;;;;21.61;39.55;95164.91;6127032;19;1057;-81
2022/12/17 14:07:02;;;;;;;;;;;;;;;21.60;39.36;95164.09;6110734;19;1301;-81
2022/12/17 14:09:08;;;;;;;;;;;;;;;21.60;39.68;95163.28;6127275;19;1085;-81
2022/12/17 14:13:28;;;;;;;;;;;;;;;21.58;39.53;95168.81;6123008;19;1245;-81
2022/12/17 14:15:32;;;;;;;;;;;;;;;;;;6127480;19;1047;-81
2022/12/17 14:17:38;;;;;;;;;;;;;;;21.62;39.63;95170.00;6120850;19;1039;-81
2022/12/17 14:19:42;;;;;;;;;;;;;;;21.59;39.29;95177.66;6120363;19;1410;-80
2022/12/17 14:21:45;;;;;;;;;;;;;;;21.61;39.51;95171.06;6125526;19;1502;-81
2022/12/17 14:23:50;;;;;;;;;;;;;;;21.60;39.37;95168.63;6125112;19;1803;-81
2022/12/17 14:25:56;;;;;;;;;;;;;;;21.61;39.26;95175.59;6126056;19;1040;-80
2022/12/17 14:28:02;;;;;;;;;;;;;;;21.63;39.15;95179.69;6124524;19;1478;-81
2022/12/17 14:30:21;;;;;;;;;;;;;;;21.60;39.43;95173.97;6113945;19;1116;-80
2022/12/17 14:32:26;;;;;;;;;;;;;;;21.61;39.51;95186.28;6127030;19;1147;-80
2022/12/17 14:34:29;;;;;;;;;;;;;;;21.62;39.45;95196.75;6125590;19;957;-81
2022/12/17 14:36:33;;;;;;;;;;;;;;;21.60;39.47;95187.34;6126153;19;1067;-81
2022/12/17 14:38:37;;;;;;;;;;;;;;;21.60;39.36;95164.09;6126752;19;961;-81
2022/12/17 14:40:42;;;;;;;;;;;;;;;21.59;39.40;95146.38;6121240;19;1021;-81
2022/12/17 14:42:47;;;;;;;;;;;;;;;21.62;39.36;95178.03;6120917;19;1813;-81
2022/12/17 14:44:52;;;;;;;;;;;;;;;21.63;39.18;95194.94;6126818;19;1411;-82
2022/12/17 14:46:57;;;;;;;;;;;;;;;21.62;39.44;95191.41;6125234;19;1012;-81
2022/12/17 14:49:04;;;;;;;;;;;;;;;21.65;39.57;95169.63;6122671;19;1073;-82
2022/12/17 14:51:08;;;;;;;;;;;;;;;21.61;39.36;95176.41;6121863;19;1470;-81
2022/12/17 14:53:25;;;;;;;;;;;;;;;21.66;39.59;95189.16;6111917;19;1089;-81
2022/12/17 14:55:31;;;;;;;;;;;;;;;21.67;39.49;95210.31;6129507;19;1148;-82
2022/12/17 14:57:34;;;;;;;;;;;;;;;21.63;39.51;95227.00;6129148;19;1024;-81
2022/12/17 14:59:42;;;;;;;;;;;;;;;21.65;39.39;95201.69;6128614;19;1020;-81
2022/12/17 15:01:45;;;;;;;;;;;;;;;21.64;39.10;95186.66;6129179;19;1111;-81
2022/12/17 15:03:49;;;;;;;;;;;;;;;21.58;39.34;95182.19;6115223;19;1853;-80
2022/12/17 15:05:54;;;;;;;;;;;;;;;21.61;39.34;95203.16;6127889;19;1343;-79
2022/12/17 15:07:57;;;;;;;;;;;;;;;21.60;39.28;95222.91;6128290;19;1012;-81
2022/12/17 15:10:02;;;;;;;;;;;;;;;21.62;39.46;95210.13;6128242;19;1004;-82
2022/12/17 15:12:06;;;;;;;;;;;;;;;21.60;39.32;95200.69;6128434;19;1195;-81
2022/12/17 15:14:09;;;;;;;;;;;;;;;21.58;39.23;95198.22;6126097;19;1325;-81
2022/12/17 15:16:15;;;;;;;;;;;;;;;21.55;39.43;95214.69;6118401;19;1014;-80
2022/12/17 15:18:19;;;;;;;;;;;;;;;21.54;39.73;95218.41;6130068;19;1049;-81
2022/12/17 15:20:23;;;;;;;;;;;;;;;21.60;39.62;95230.13;6129043;19;1013;-81
2022/12/17 15:22:27;;;;;;;;;;;;;;;21.59;39.50;95223.91;6128623;19;1064;-80
2022/12/17 15:24:30;;;;;;;;;;;;;;;21.54;39.58;95223.75;6128186;19;1852;-80
2022/12/17 15:26:34;;;;;;;;;;;;;;;21.55;39.55;95225.38;6119843;19;1052;-81
2022/12/17 15:28:38;;;;;;;;;;;;;;;21.54;39.72;95229.13;6130503;19;992;-80
2022/12/17 15:30:47;;;;;;;;;;;;;;;21.53;39.71;95240.81;6128722;19;1013;-81
2022/12/17 15:32:56;;;;;;;;;;;;;;;21.55;39.57;95241.44;6129079;19;1000;-81
2022/12/17 15:34:59;;;;;;;;;;;;;;;21.52;39.78;95241.03;6127931;19;1324;-81
2022/12/17 15:37:02;;;;;;;;;;;;;;;21.56;39.36;95240.41;6125412;19;1171;-85
2022/12/17 15:39:08;;;;;;;;;;;;;;;21.52;39.47;95244.53;6127561;19;1573;-82
2022/12/17 15:43:30;;;;;;;;;;;;;;;21.51;39.30;95229.50;6129342;19;1846;-80
2022/12/17 15:45:36;;;;;;;;;;;;;;;21.52;39.50;95231.16;6131281;19;1030;-80
2022/12/17 15:47:43;;;;;;;;;;;;;;;21.55;39.54;95238.75;6133439;19;1144;-81
2022/12/17 15:49:46;;;;;;;;;;;;;;;;;;6124368;19;1093;-82
2022/12/17 15:51:52;;;;;;;;;;;;;;;21.54;39.65;95242.47;6130410;19;1295;-79
2022/12/17 15:53:59;;;;;;;;;;;;;;;21.51;39.67;95245.56;6131555;19;973;-80
2022/12/17 15:56:03;;;;;;;;;;;;;;;21.52;39.58;95247.22;6131797;19;1006;-79
2022/12/17 15:58:07;;;;;;;;;;;;;;;21.50;39.75;95240.44;6132993;19;1056;-80
2022/12/17 16:00:13;;;;;;;;;;;;;;;21.51;39.34;95240.19;6128848;19;1006;-80
2022/12/17 16:02:17;;;;;;;;;;;;;;;21.52;39.65;95236.50;6128959;19;1539;-82
2022/12/17 16:04:20;;;;;;;;;;;;;;;21.52;39.74;95247.22;6128190;19;1826;-80
2022/12/17 16:06:25;;;;;;;;;;;;;;;21.48;39.71;95242.47;6129739;19;1275;-81
2022/12/17 16:08:33;;;;;;;;;;;;;;;21.48;39.54;95250.50;6129229;19;1204;-80
2022/12/17 16:10:36;;;;;;;;;;;;;;;21.52;39.46;95254.41;6131404;19;1140;-81
2022/12/17 16:12:40;;;;;;;;;;;;;;;21.50;39.79;95243.91;6121606;19;1050;-81
2022/12/17 16:14:44;;;;;;;;;;;;;;;21.51;39.70;95253.56;6128888;19;1104;-81
2022/12/17 16:16:47;;;;;;;;;;;;;;;21.48;39.68;95266.53;6129327;19;1216;-80
2022/12/17 16:18:51;;;;;;;;;;;;;;;21.45;39.45;95281.16;6130334;19;961;-81
2022/12/17 16:20:56;;;;;;;;;;;;;;;21.46;39.49;95272.13;6127314;19;1388;-82
2022/12/17 16:22:59;;;;;;;;;;;;;;;21.45;39.52;95273.13;6124215;19;1829;-81
2022/12/17 16:25:06;;;;;;;;;;;;;;;21.47;39.50;95279.09;6126570;19;1023;-81
2022/12/17 16:27:09;;;;;;;;;;;;;;;21.45;39.90;95283.81;6128632;19;1099;-81
2022/12/17 16:29:13;;;;;;;;;;;;;;;21.50;39.37;95283.19;6127540;19;1457;-80
2022/12/17 16:31:17;;;;;;;;;;;;;;;21.50;39.64;95301.91;6129401;19;1136;-81
2022/12/17 16:33:20;;;;;;;;;;;;;;;21.48;39.64;95294.09;6129392;19;1024;-81
2022/12/17 16:35:24;;;;;;;;;;;;;;;21.48;39.45;95293.28;6117849;19;1086;-81
2022/12/17 16:37:28;;;;;;;;;;;;;;;21.49;39.48;95302.97;6130102;19;993;-81
2022/12/17 16:39:32;;;;;;;;;;;;;;;21.48;39.68;95304.78;6127417;19;1039;-82
2022/12/17 16:41:40;;;;;;;;;;;;;;;21.50;39.54;95291.22;6128855;19;1037;-82
2022/12/17 16:43:44;;;;;;;;;;;;;;;21.48;39.83;95310.13;6128169;19;1857;-81
2022/12/17 16:45:49;;;;;;;;;;;;;;;21.52;39.75;95315.91;6121983;19;1017;-86
2022/12/17 16:47:56;;;;;;;;;;;;;;;21.49;39.78;95311.81;6127488;19;1062;-81
2022/12/17 16:50:00;;;;;;;;;;;;;;;21.43;39.64;95324.16;6127947;19;1383;-82
2022/12/17 16:52:04;;;;;;;;;;;;;;;21.45;39.84;95321.25;6128704;19;1013;-82
2022/12/17 16:54:08;;;;;;;;;;;;;;;21.42;39.85;95322.50;6128724;19;973;-81
2022/12/17 16:56:16;;;;;;;;;;;;;;;21.47;39.49;95323.72;6128655;19;1004;-82
2022/12/17 16:58:22;;;;;;;;;;;;;;;21.46;39.87;95328.25;6118110;19;1139;-82
2022/12/17 17:00:26;;;;;;;;;;;;;;;21.46;39.72;95325.59;6126847;19;1405;-83
2022/12/17 17:02:31;;;;;;;;;;;;;;;21.48;39.83;95325.38;6127798;19;1184;-81
2022/12/17 17:04:34;;;;;;;;;;;;;;;21.45;39.46;95332.78;6127257;19;1857;-82
2022/12/17 17:06:40;;;;;;;;;;;;;;;21.52;39.33;95338.13;6126510;19;1265;-82
2022/12/17 17:08:43;;;;;;;;;;;;;;;21.43;39.58;95324.16;6115807;19;1155;-81
2022/12/17 17:10:47;;;;;;;;;;;;;;;21.45;39.83;95332.78;6127417;19;1059;-81
2022/12/17 17:12:53;;;;;;;;;;;;;;;21.44;39.57;95341.00;6127475;19;1031;-81
2022/12/17 17:14:59;;;;;;;;;;;;;;;21.45;39.65;95338.13;6127871;19;1405;-83
2022/12/17 17:17:02;;;;;;;;;;;;;;;21.46;39.51;95328.25;6126733;19;1123;-81
2022/12/17 17:19:06;;;;;;;;;;;;;;;21.45;39.88;95347.97;6126151;19;1297;-81
2022/12/17 17:21:25;;;;;;;;;;;;;;;21.47;39.83;95345.13;6120200;19;1050;-81
2022/12/17 17:23:31;;;;;;;;;;;;;;;21.45;39.47;95343.47;6126628;19;1837;-82
2022/12/17 17:25:34;;;;;;;;;;;;;;;21.46;39.42;95355.00;6127909;19;1433;-82
2022/12/17 17:27:38;;;;;;;;;;;;;;;21.41;39.53;95362.81;6128483;19;1453;-82
2022/12/17 17:29:41;;;;;;;;;;;;;;;21.43;39.43;95353.56;6129007;19;1012;-81
2022/12/17 17:31:47;;;;;;;;;;;;;;;21.45;39.41;95358.69;6122376;19;1064;-82
2022/12/17 17:33:52;;;;;;;;;;;;;;;21.47;39.55;95364.66;6129387;19;1177;-81
2022/12/17 17:35:56;;;;;;;;;;;;;;;21.49;39.37;95365.28;6127070;19;1141;-80
2022/12/17 17:38:00;;;;;;;;;;;;;;;21.45;39.36;95369.38;6126957;19;973;-81
2022/12/17 17:40:06;;;;;;;;;;;;;;;21.52;39.41;95364.84;6126790;19;1378;-81
2022/12/17 17:42:09;;;;;;;;;;;;;;;21.49;39.33;95377.81;6121537;19;1019;-83
2022/12/17 17:44:14;;;;;;;;;;;;;;;21.43;39.57;95385.63;6122012;19;1821;-81
2022/12/17 17:46:18;;;;;;;;;;;;;;;21.46;39.33;95376.38;6127086;19;1137;-81
2022/12/17 17:48:24;;;;;;;;;;;;;;;21.47;39.38;95377.19;6125302;19;1385;-81
2022/12/17 17:50:29;;;;;;;;;;;;;;;21.47;39.48;95387.91;6126127;19;1180;-82
2022/12/17 17:52:32;;;;;;;;;;;;;;;21.48;39.52;95387.66;6126673;19;1174;-80
2022/12/17 17:54:36;;;;;;;;;;;;;;;21.41;39.93;95387.69;6115635;19;1033;-81
2022/12/17 17:56:43;;;;;;;;;;;;;;;21.44;39.63;95384.59;6124540;19;1463;-82
2022/12/17 17:58:47;;;;;;;;;;;;;;;21.47;39.67;95390.56;6127210;19;1084;-81
2022/12/17 18:00:51;;;;;;;;;;;;;;;21.46;39.45;95387.06;6126761;19;950;-82
2022/12/17 18:02:55;;;;;;;;;;;;;;;21.51;39.74;95389.09;6126136;19;1059;-83
2022/12/17 18:05:07;;;;;;;;;;;;;;;21.47;39.74;95398.59;6118628;19;2175;-82
2022/12/17 18:07:10;;;;;;;;;;;;;;;21.45;39.42;95406.81;6120477;19;1279;-81
2022/12/17 18:09:14;;;;;;;;;;;;;;;21.49;39.57;95408.03;6126591;19;1027;-81
2022/12/17 18:11:20;;;;;;;;;;;;;;;21.47;39.45;95410.09;6126982;19;1123;-81
2022/12/17 18:15:39;;;;;;;;;;;;;;;21.44;39.49;95424.69;6126082;19;798;-81
2022/12/17 18:17:45;;;;;;;;;;;;;;;21.46;39.60;95429.84;6115508;19;1120;-81
2022/12/17 18:19:49;;;;;;;;;;;;;;;21.47;39.62;95428.81;6124720;19;1376;-80
2022/12/17 18:21:56;;;;;;;;;;;;;;;21.43;39.59;95430.28;6126776;19;974;-81
2022/12/17 18:24:00;;;;;;;;;;;;;;;21.45;39.39;95438.88;6125666;19;1849;-82
2022/12/17 18:26:08;;;;;;;;;;;;;;;21.40;39.79;95438.69;6125213;19;1024;-82
2022/12/17 18:28:11;;;;;;;;;;;;;;;21.45;39.39;95441.56;6116063;19;1062;-81
2022/12/17 18:30:15;;;;;;;;;;;;;;;21.45;39.71;95444.22;6125142;19;1048;-81
2022/12/17 18:32:19;;;;;;;;;;;;;;;21.48;39.41;95443.81;6126331;19;1064;-81
2022/12/17 18:34:24;;;;;;;;;;;;;;;21.45;39.52;95450.44;6125111;19;1136;-81
2022/12/17 18:36:28;;;;;;;;;;;;;;;21.47;39.44;95452.88;6125405;19;1063;-82
2022/12/17 18:38:35;;;;;;;;;;;;;;;21.47;39.31;95463.56;6123983;19;1076;-81
2022/12/17 18:40:41;;;;;;;;;;;;;;;21.47;39.46;95468.91;6116144;19;1129;-81
2022/12/17 18:45:03;;;;;;;;;;;;;;;21.43;39.70;95465.84;6125935;19;1819;-81
2022/12/17 18:47:07;;;;;;;;;;;;;;;21.49;39.58;95468.72;6127089;19;1083;-82
2022/12/17 18:49:11;;;;;;;;;;;;;;;21.42;39.73;95472.19;6126234;19;1298;-81
2022/12/17 18:51:15;;;;;;;;;;;;;;;21.40;39.60;95482.28;6116511;19;1071;-81
2022/12/17 18:53:18;;;;;;;;;;;;;;;21.42;39.78;95495.44;6126183;19;993;-79
2022/12/17 18:55:25;;;;;;;;;;;;;;;21.43;39.55;95491.75;6126258;19;1049;-79
2022/12/17 18:57:28;;;;;;;;;;;;;;;21.45;39.67;95501.22;6126453;19;1076;-80
2022/12/17 18:59:33;;;;;;;;;;;;;;;21.48;39.64;95502.63;6126850;19;1079;-80
2022/12/17 19:01:37;;;;;;;;;;;;;;;21.46;39.36;95504.72;6121604;19;1149;-81
2022/12/17 19:03:41;;;;;;;;;;;;;;;21.43;39.48;95510.47;6120337;19;1073;-82
2022/12/17 19:05:44;;;;;;;;;;;;;;;21.47;39.69;95509.03;6124356;19;1854;-81
2022/12/17 19:07:47;;;;;;;;;;;;;;;21.47;39.51;95521.56;6124595;19;1346;-81
2022/12/17 19:09:50;;;;;;;;;;;;;;;21.46;39.36;95520.75;6125528;19;976;-82
2022/12/17 19:11:57;;;;;;;;;;;;;;;21.49;39.77;95530.22;6127068;19;1103;-82
2022/12/17 19:14:00;;;;;;;;;;;;;;;21.47;39.31;95535.75;6115920;19;1115;-82
2022/12/17 19:16:08;;;;;;;;;;;;;;;21.43;39.41;95532.69;6126295;19;1013;-81
2022/12/17 19:18:13;;;;;;;;;;;;;;;21.49;39.53;95544.41;6125498;19;1029;-81
2022/12/17 19:20:17;;;;;;;;;;;;;;;21.49;39.41;95536.38;6125563;19;1116;-81
2022/12/17 19:22:20;;;;;;;;;;;;;;;21.44;39.50;95549.53;6125344;19;1092;-81
2022/12/17 19:24:26;;;;;;;;;;;;;;;21.46;39.40;95547.50;6119876;19;1834;-82
2022/12/17 19:26:30;;;;;;;;;;;;;;;21.45;39.45;95543.16;6120157;19;1017;-81
2022/12/17 19:28:36;;;;;;;;;;;;;;;21.40;39.87;95545.63;6126308;19;1028;-82
2022/12/17 19:30:39;;;;;;;;;;;;;;;21.47;39.65;95540.28;6123230;19;1481;-81
2022/12/17 19:32:43;;;;;;;;;;;;;;;21.45;39.39;95545.81;6124946;19;1055;-82
2022/12/17 19:34:46;;;;;;;;;;;;;;;21.47;39.48;95545.63;6124975;19;1124;-81
2022/12/17 19:36:50;;;;;;;;;;;;;;;21.47;39.35;95543.78;6114621;19;1407;-80
2022/12/17 19:38:54;;;;;;;;;;;;;;;21.49;39.21;95547.06;6125201;19;1044;-80
2022/12/17 19:40:57;;;;;;;;;;;;;;;21.50;39.19;95553.25;6130441;19;1037;-81
2022/12/17 19:43:00;;;;;;;;;;;;;;;21.44;39.45;95549.53;6131108;19;1096;-80
2022/12/17 19:45:07;;;;;;;;;;;;;;;21.44;39.48;95538.84;6130353;19;1845;-81
2022/12/17 19:47:14;;;;;;;;;;;;;;;21.51;39.67;95550.34;6125420;19;1099;-81
2022/12/17 19:49:18;;;;;;;;;;;;;;;21.47;39.41;95551.81;6124408;19;1015;-81
2022/12/17 19:51:23;;;;;;;;;;;;;;;21.44;39.51;95550.34;6128568;19;1131;-81
2022/12/17 19:53:27;;;;;;;;;;;;;;;21.48;39.32;95547.28;6129252;19;1049;-81
2022/12/17 19:55:30;;;;;;;;;;;;;;;21.42;39.53;95551.59;6128721;19;1042;-81
2022/12/17 19:57:35;;;;;;;;;;;;;;;21.46;39.36;95558.19;6128191;19;1080;-81
2022/12/17 19:59:39;;;;;;;;;;;;;;;21.46;39.44;95563.53;6117882;19;1063;-81
2022/12/17 20:01:47;;;;;;;;;;;;;;;21.43;39.36;95566.63;6129235;19;1067;-81
2022/12/17 20:03:50;;;;;;;;;;;;;;;21.50;39.42;95567.44;6129713;19;1011;-82
2022/12/17 20:05:54;;;;;;;;;;;;;;;21.41;39.46;95566.81;6127563;19;1899;-81
2022/12/17 20:07:57;;;;;;;;;;;;;;;21.44;39.36;95576.28;6130519;19;1104;-81
2022/12/17 20:10:01;;;;;;;;;;;;;;;21.41;39.69;95571.34;6125923;19;1085;-81
2022/12/17 20:12:04;;;;;;;;;;;;;;;21.50;39.37;95579.97;6125501;19;1067;-80
2022/12/17 20:14:09;;;;;;;;;;;;;;;21.56;39.20;95582.66;6127348;19;1397;-81
2022/12/17 20:16:12;;;;;;;;;;;;;;;21.54;39.46;95581.22;6129527;19;1562;-81
2022/12/17 20:18:19;;;;;;;;;;;;;;;21.59;39.36;95592.13;6130140;19;1149;-80
2022/12/17 20:20:23;;;;;;;;;;;;;;;21.67;38.93;95597.28;6130291;19;1485;-80
2022/12/17 20:22:26;;;;;;;;;;;;;;;21.72;39.05;95600.16;6121078;19;1151;-82
2022/12/17 20:24:32;;;;;;;;;;;;;;;21.72;39.06;95596.69;6128952;19;1849;-81
2022/12/17 20:26:35;;;;;;;;;;;;;;;21.75;38.74;95607.78;6129834;19;985;-82
2022/12/17 20:28:39;;;;;;;;;;;;;;;21.71;39.10;95608.38;6128113;19;1208;-82
2022/12/17 20:30:45;;;;;;;;;;;;;;;21.72;39.21;95610.06;6129838;19;989;-82
2022/12/17 20:32:49;;;;;;;;;;;;;;;21.71;39.17;95609.19;6124152;19;1413;-82
2022/12/17 20:34:55;;;;;;;;;;;;;;;21.71;39.26;95611.88;6125015;19;1071;-82
2022/12/17 20:36:59;;;;;;;;;;;;;;;21.73;38.91;95606.34;6128481;19;1432;-82
2022/12/17 20:39:03;;;;;;;;;;;;;;;21.72;38.86;95618.06;6129543;19;917;-81
2022/12/17 20:41:18;;;;;;;;;;;;;;;21.67;39.03;95611.47;6129748;19;1146;-81
2022/12/17 20:43:22;;;;;;;;;;;;;;;21.68;39.23;95610.47;6128758;19;1162;-80
2022/12/17 20:45:26;;;;;;;;;;;;;;;21.70;39.21;95615.59;6117316;19;1830;-81
2022/12/17 20:47:29;;;;;;;;;;;;;;;21.71;39.21;95619.09;6126609;19;1488;-81
2022/12/17 20:49:33;;;;;;;;;;;;;;;21.70;39.05;95614.78;6129094;19;913;-81
2022/12/17 20:51:43;;;;;;;;;;;;;;;21.70;38.89;95620.13;6128778;19;1175;-81
2022/12/17 20:53:49;;;;;;;;;;;;;;;21.71;39.35;95627.09;6128042;19;1110;-81
2022/12/17 20:56:01;;;;;;;;;;;;;;;21.73;39.17;95628.56;6122438;19;1096;-80
2022/12/17 20:58:05;;;;;;;;;;;;;;;21.73;39.12;95628.56;6128984;19;1250;-81
2022/12/17 21:00:10;;;;;;;;;;;;;;;21.73;38.96;95628.56;6128522;19;1164;-82
2022/12/17 21:02:16;;;;;;;;;;;;;;;21.73;39.24;95633.09;6128165;19;1120;-82
2022/12/17 21:04:22;;;;;;;;;;;;;;;21.73;38.88;95646.47;6128462;19;1080;-81
2022/12/17 21:06:27;;;;;;;;;;;;;;;21.72;39.24;95642.16;6122729;19;1857;-84
2022/12/17 21:08:34;;;;;;;;;;;;;;;21.73;39.25;95649.13;6122075;19;1014;-82
2022/12/17 21:10:37;;;;;;;;;;;;;;;21.73;39.15;95649.13;6128221;19;1200;-82
2022/12/17 21:14:58;;;;;;;;;;;;;;;21.73;38.83;95644.59;6126797;19;1120;-81
2022/12/17 21:17:04;;;;;;;;;;;;;;;21.73;39.19;95646.47;6128292;19;1011;-82
2022/12/17 21:19:11;;;;;;;;;;;;;;;21.73;38.91;95643.78;6115917;19;1431;-82
2022/12/17 21:21:16;;;;;;;;;;;;;;;21.74;39.15;95661.47;6129194;19;1000;-81
2022/12/17 21:23:20;;;;;;;;;;;;;;;21.71;38.92;95660.03;6128105;19;983;-81
2022/12/17 21:25:28;;;;;;;;;;;;;;;21.71;39.31;95672.56;6127607;19;1841;-82
2022/12/17 21:27:32;;;;;;;;;;;;;;;21.73;38.94;95670.53;6127762;19;938;-81
2022/12/17 21:29:36;;;;;;;;;;;;;;;21.74;39.22;95672.16;6124555;19;982;-82
2022/12/17 21:31:41;;;;;;;;;;;;;;;21.74;39.30;95674.84;6123393;19;1160;-82
2022/12/17 21:33:45;;;;;;;;;;;;;;;21.74;38.96;95674.84;6126504;19;976;-81
2022/12/17 21:35:48;;;;;;;;;;;;;;;21.74;39.12;95681.03;6128063;19;1009;-82
2022/12/17 21:37:52;;;;;;;;;;;;;;;21.74;39.28;95674.84;6126944;19;1052;-81
2022/12/17 21:39:56;;;;;;;;;;;;;;;21.73;38.86;95681.22;6125787;19;1285;-80
2022/12/17 21:44:18;;;;;;;;;;;;;;;21.73;39.31;95681.22;6128191;19;759;-82
2022/12/17 21:46:22;;;;;;;;;;;;;;;21.75;38.93;95684.53;6125441;19;1860;-82
2022/12/17 21:48:28;;;;;;;;;;;;;;;21.71;39.01;95686.78;6126744;19;1011;-82
2022/12/17 21:50:31;;;;;;;;;;;;;;;21.73;39.30;95692.75;6127147;19;1004;-81
2022/12/17 21:52:34;;;;;;;;;;;;;;;21.73;39.14;95686.59;6117038;19;1388;-86
2022/12/17 21:54:38;;;;;;;;;;;;;;;21.73;39.01;95681.22;6126265;19;1036;-81
2022/12/17 21:56:41;;;;;;;;;;;;;;;21.75;39.04;95695.25;6127239;19;1226;-81
2022/12/17 21:58:48;;;;;;;;;;;;;;;21.72;39.23;95688.44;6125092;19;1505;-81
2022/12/17 22:00:51;;;;;;;;;;;;;;;21.76;38.82;95696.88;6127265;19;1061;-79
2022/12/17 22:02:55;;;;;;;;;;;;;;;21.77;38.81;95691.34;6125863;19;1144;-83
2022/12/17 22:05:03;;;;;;;;;;;;;;;21.76;38.84;95699.56;6115919;19;1559;-81
2022/12/17 22:07:07;;;;;;;;;;;;;;;21.75;39.26;95705.94;6125550;19;1366;-81
2022/12/17 22:09:10;;;;;;;;;;;;;;;21.76;39.18;95699.56;6125061;19;1507;-81
2022/12/17 22:11:14;;;;;;;;;;;;;;;21.75;38.99;95708.63;6126134;19;1039;-81
2022/12/17 22:15:40;;;;;;;;;;;;;;;21.75;39.23;95700.59;6116532;19;1096;-81
2022/12/17 22:17:43;;;;;;;;;;;;;;;21.74;39.11;95704.28;6126401;19;1110;-82
2022/12/17 22:19:50;;;;;;;;;;;;;;;21.74;38.92;95709.63;6125429;19;1393;-81
2022/12/17 22:21:54;;;;;;;;;;;;;;;21.74;39.26;95709.63;6126805;19;1071;-82
2022/12/17 22:23:59;;;;;;;;;;;;;;;21.75;39.24;95711.28;6124526;19;1393;-82
2022/12/17 22:26:04;;;;;;;;;;;;;;;21.75;39.13;95709.44;6121334;19;1834;-82
2022/12/17 22:28:13;;;;;;;;;;;;;;;21.78;39.10;95716.22;6119068;19;1418;-81
2022/12/17 22:34:51;;;;;;;;;;;;;;;21.77;39.16;95714.56;6126650;19;739;-81
2022/12/17 22:36:55;;;;;;;;;;;;;;;21.76;39.06;95705.72;6124539;19;1568;-81
2022/12/17 22:39:00;;;;;;;;;;;;;;;21.77;39.11;95720.75;6113999;19;1139;-81
2022/12/17 22:43:28;;;;;;;;;;;;;;;21.75;39.11;95711.28;6125740;19;1097;-80
2022/12/17 22:43:32;;;;;;;;;;;;;;;21.74;39.23;95723.84;6125733;19;854;-81
2022/12/17 22:45:39;;;;;;;;;;;;;;;21.75;38.91;95716.63;6124797;19;1837;-80
2022/12/17 22:47:45;;;;;;;;;;;;;;;21.76;39.19;95723.63;6126525;19;985;-80
2022/12/17 22:49:48;;;;;;;;;;;;;;;21.77;39.07;95725.25;6114798;19;1464;-81
2022/12/17 22:51:51;;;;;;;;;;;;;;;21.76;38.93;95726.31;6125489;19;1124;-81
2022/12/17 22:53:55;;;;;;;;;;;;;;;21.76;39.10;95726.31;6125028;19;1097;-80
2022/12/17 22:56:05;;;;;;;;;;;;;;;21.74;39.26;95731.00;6125250;19;1135;-81
2022/12/17 22:58:08;;;;;;;;;;;;;;;21.74;39.23;95733.69;6125771;19;1119;-80
2022/12/17 23:00:17;;;;;;;;;;;;;;;21.77;38.85;95736.81;6120195;19;1032;-80
2022/12/17 23:02:20;;;;;;;;;;;;;;;21.77;39.20;95735.97;6118091;19;1485;-81
2022/12/17 23:04:26;;;;;;;;;;;;;;;21.74;39.22;95741.72;6124967;19;1155;-80
2022/12/17 23:06:30;;;;;;;;;;;;;;;21.75;38.78;95744.22;6124756;19;1833;-81
2022/12/17 23:08:33;;;;;;;;;;;;;;;21.76;39.24;95745.84;6124562;19;1155;-81
2022/12/17 23:10:37;;;;;;;;;;;;;;;21.76;39.08;95750.38;6123719;19;1454;-81
2022/12/17 23:12:53;;;;;;;;;;;;;;;21.77;38.97;95758.22;6115085;19;1140;-81
2022/12/17 23:14:56;;;;;;;;;;;;;;;21.75;39.23;95759.44;6125469;19;1085;-81
2022/12/17 23:17:00;;;;;;;;;;;;;;;21.71;38.95;95758.16;6131350;19;1111;-81
2022/12/17 23:19:03;;;;;;;;;;;;;;;21.73;38.95;95761.47;6130858;19;1098;-81
2022/12/17 23:21:11;;;;;;;;;;;;;;;21.74;39.19;95772.00;6131013;19;1010;-81
2022/12/17 23:23:16;;;;;;;;;;;;;;;21.75;39.08;95770.13;6126062;19;1033;-81
2022/12/17 23:25:19;;;;;;;;;;;;;;;21.76;38.94;95777.13;6127082;19;1013;-81
2022/12/17 23:27:24;;;;;;;;;;;;;;;21.76;38.85;95769.09;6128598;19;1841;-81
2022/12/17 23:29:27;;;;;;;;;;;;;;;21.74;39.09;95773.81;6130578;19;1143;-81
2022/12/17 23:31:34;;;;;;;;;;;;;;;21.75;39.26;95781.66;6130923;19;1061;-81
2022/12/17 23:33:47;;;;;;;;;;;;;;;21.78;39.03;95775.91;6131196;19;1028;-81
2022/12/17 23:35:50;;;;;;;;;;;;;;;21.77;39.07;95776.94;6120405;19;1088;-81
2022/12/17 23:37:57;;;;;;;;;;;;;;;21.78;39.07;95783.94;6128856;19;1370;-82
2022/12/17 23:40:00;;;;;;;;;;;;;;;21.79;39.13;95790.09;6130696;19;992;-81
2022/12/17 23:42:06;;;;;;;;;;;;;;;21.78;39.16;95801.84;6131589;19;1197;-81
2022/12/17 23:44:10;;;;;;;;;;;;;;;21.77;38.87;95795.66;6129499;19;1427;-81
2022/12/17 23:46:14;;;;;;;;;;;;;;;21.75;38.96;95796.88;6119912;19;1814;-81
2022/12/17 23:48:17;;;;;;;;;;;;;;;21.77;39.09;95797.50;6129318;19;1025;-81
2022/12/17 23:50:23;;;;;;;;;;;;;;;21.78;38.74;95802.66;6129614;19;1067;-81
2022/12/17 23:52:26;;;;;;;;;;;;;;;21.76;38.79;95809.22;6129018;19;1104;-80
2022/12/17 23:54:32;;;;;;;;;;;;;;;21.75;38.81;95813.75;6129606;19;1143;-80
2022/12/17 23:56:38;;;;;;;;;;;;;;;21.74;39.24;95814.78;6130010;19;1086;-81
2022/12/17 23:58:42;;;;;;;;;;;;;;;21.76;38.80;95820.75;6119211;19;1156;-81
